createdAt,value
2018-12-21T00:07:39.478Z,1005.5
2018-12-21T00:17:53.430Z,1005.3
2018-12-21T00:28:07.395Z,1005.1
2018-12-21T00:38:21.248Z,1005.1
2018-12-21T00:48:35.349Z,1005.1
2018-12-21T00:59:22.682Z,1005.0
2018-12-21T01:09:36.163Z,1004.9
2018-12-21T01:19:50.532Z,1004.9
2018-12-21T01:30:04.468Z,1004.8
2018-12-21T01:40:50.054Z,1004.6
2018-12-21T01:51:03.430Z,1004.5
2018-12-21T02:01:16.623Z,1004.2
2018-12-21T02:11:29.949Z,1004.4
2018-12-21T02:21:44.234Z,1004.2
2018-12-21T02:31:58.259Z,1004.1
2018-12-21T02:42:11.598Z,1003.9
2018-12-21T02:52:56.832Z,1003.7
2018-12-21T03:03:10.835Z,1003.6
2018-12-21T03:14:02.140Z,1003.4
2018-12-21T03:24:21.142Z,1003.1
2018-12-21T03:34:34.780Z,1002.8
2018-12-21T03:44:52.307Z,1002.5
2018-12-21T03:55:09.606Z,1002.2
2018-12-21T04:06:37.928Z,1002.0
2018-12-21T04:16:52.010Z,1001.9
2018-12-21T04:27:03.191Z,1001.8
2018-12-21T04:38:22.421Z,1001.6
2018-12-21T04:48:41.251Z,1001.3
2018-12-21T04:58:58.352Z,1000.9
2018-12-21T05:09:12.687Z,1000.9
2018-12-21T05:20:00.019Z,1000.6
2018-12-21T05:30:14.257Z,1000.2
2018-12-21T05:41:02.058Z,1000.3
2018-12-21T05:51:55.173Z,999.9
2018-12-21T06:02:08.841Z,999.6
2018-12-21T06:13:45.770Z,999.3
2018-12-21T06:24:04.247Z,999.2
2018-12-21T06:34:23.359Z,999.0
2018-12-21T06:44:42.597Z,998.7
2018-12-21T06:55:18.416Z,998.3
2018-12-21T07:06:02.098Z,997.9
2018-12-21T07:16:21.947Z,997.7
2018-12-21T07:27:10.614Z,997.4
2018-12-21T07:38:12.864Z,997.3
2018-12-21T07:48:26.505Z,997.1
2018-12-21T07:59:17.627Z,996.5
2018-12-21T08:09:31.407Z,996.3
2018-12-21T08:20:18.335Z,995.9
2018-12-21T08:31:05.403Z,995.7
2018-12-21T08:41:55.482Z,995.6
2018-12-21T08:52:09.255Z,995.2
2018-12-21T09:02:59.617Z,994.9
2018-12-21T09:13:46.657Z,994.7
2018-12-21T09:24:31.539Z,994.5
2018-12-21T09:36:21.516Z,994.3
2018-12-21T09:49:07.988Z,993.9
2018-12-21T10:01:51.892Z,993.5
2018-12-21T10:12:16.785Z,993.2
2018-12-21T10:23:13.535Z,992.9
2018-12-21T10:36:43.946Z,992.7
2018-12-21T10:48:47.396Z,992.5
2018-12-21T11:01:24.113Z,992.3
2018-12-21T11:14:44.219Z,992.2
2018-12-21T11:25:19.794Z,992.0
2018-12-21T11:37:31.808Z,991.7
2018-12-21T11:48:23.609Z,991.8
2018-12-21T11:59:48.302Z,991.5
2018-12-21T12:11:00.776Z,991.7
2018-12-21T12:22:38.756Z,991.5
2018-12-21T12:34:06.348Z,991.5
2018-12-21T12:45:26.611Z,991.6
2018-12-21T12:56:35.923Z,991.7
2018-12-21T13:09:05.296Z,991.8
2018-12-21T13:19:57.616Z,991.7
2018-12-21T13:31:59.228Z,992.0
2018-12-21T13:43:15.836Z,991.8
2018-12-21T13:55:20.193Z,992.0
2018-12-21T14:05:57.267Z,992.1
2018-12-21T14:17:53.941Z,992.2
2018-12-21T14:30:01.141Z,992.7
2018-12-21T14:42:22.415Z,992.7
2018-12-21T14:54:26.912Z,993.1
2018-12-21T15:04:54.169Z,993.2
2018-12-21T21:17:33.188Z,999.1
2018-12-21T21:28:18.360Z,999.5
2018-12-21T21:39:06.056Z,999.6
2018-12-21T21:49:51.782Z,999.8
2018-12-21T22:00:06.065Z,1000.1
2018-12-21T22:10:17.143Z,1000.3
2018-12-21T22:20:30.174Z,1000.6
2018-12-21T22:30:43.651Z,1000.8
2018-12-21T22:40:58.057Z,1001.0
2018-12-21T22:51:11.736Z,1001.2
2018-12-21T23:01:25.233Z,1001.2
2018-12-21T23:11:39.349Z,1001.3
2018-12-21T23:21:52.732Z,1001.3
2018-12-21T23:32:40.274Z,1001.3
2018-12-21T23:42:53.334Z,1001.2
2018-12-21T23:53:06.506Z,1001.3
